Bluff Dale, TX

3:52 PM CST on December 06, 2016 (GMT -0600)
Mountain Lakes | | Change Station

Elev 1100 ft 32.31 °N, 98.01 °W | Updated 1 second ago

Overcast
Overcast
45.6 °F
Feels Like 44 °F
N
4.0
Wind Variable Wind from NNE

Today
High -- | Low -- °F
--% Chance of Precip.
Yesterday
High -- | Low -- °F
Precip. -- in
Pressure 30.06 in
Visibility 10.0 miles
Clouds Mostly Cloudy 800 ft
Mostly Cloudy 2200 ft
Overcast 3100 ft
Windchill 44 °F
Dew Point 42 °F
Humidity 88%
Rainfall 0.02 in
Snow Depth Not available.
7:19 AM 5:26 PM
Waxing Crescent, 45% visible
METAR KSEP 062135Z AUTO 34010KT 10SM BKN008 BKN022 OVC031 07/05 A3006 RMK AO2 T00710053
Pressure 30.06 in
Visibility 10.0 miles
Clouds Mostly Cloudy 800 ft
Mostly Cloudy 2200 ft
Overcast 3100 ft
Windchill 44 °F
Dew Point 42 °F
Humidity 88%
Rainfall 0.02 in
Snow Depth Not available.
7:19 AM 5:26 PM
Waxing Crescent, 45% visible
METAR KSEP 062135Z AUTO 34010KT 10SM BKN008 BKN022 OVC031 07/05 A3006 RMK AO2 T00710053

10-Day Weather Forecast

Almanac

Astronomy

Dec. 06, 2016 Rise Set
Actual Time
Civil Twilight
Nautical Twilight
Astronomical Twilight
Moon
Length of Visible Light
Length of Day
Tomorrow will be .
, % of the Moon is Illuminated

Today's Extremes

State Highs State Lows

Community

WunderPhotos

Upload Photos

1,956,033 photos uploaded!

WunderBlog® & News

Nearby

Air Quality

  Air Quality AQ Index Pollutant
Not available.

Snow Depth

Station Depth Elevation

Earthquake Activity

City Distance Mag. Time & Date
Minimum magnitude displayed is 2.5.

Coastal Water Temperatures

Place Temperature

Stations

Nearby Weather Stations

Station Location Temp. Windchill Dew Point Humidity Wind Precip. Elev Updated Type
                   

Watches & Warnings

There are currently no watches in effect.